Time;durP1;ratioP1;P1;durP2;ratioP2;P2;SDS_P1;SDS_P2;PMS_P1;PMS_P2;Temp;Humidity;BMP_temperature;BMP_pressure;BME280_temperature;BME280_humidity;BME280_pressure;Samples;Min_cycle;Max_cycle;Signal;HPM_P1;HPM_P2
2024/04/08 00:01:10;;;;;;;34.33;25.65;;;;;;;;;;5325634;26;20291;-50
2024/04/08 00:03:37;;;;;;;31.85;24.60;;;;;;;;;;5345047;26;19997;-53
2024/04/08 00:06:03;;;;;;;30.83;25.63;;;;;;;;;;5319573;26;20019;-50
2024/04/08 00:08:29;;;;;;;33.40;24.27;;;;;;;;;;5328183;26;19997;-51
2024/04/08 00:10:55;;;;;;;32.90;26.07;;;;;;;;;;5308581;27;20490;-50
2024/04/08 00:13:21;;;;;;;36.75;28.00;;;;;;;;;;5332944;26;20011;-50
2024/04/08 00:15:57;;;;;;;35.23;25.87;;;;;;;;;;5345177;26;20011;-50
2024/04/08 00:18:23;;;;;;;39.17;30.25;;;;;;;;;;5345248;26;20012;-50
2024/04/08 00:21:03;;;;;;;29.25;25.63;;;;;;;;;;5344534;26;20069;-50
2024/04/08 00:23:32;;;;;;;31.58;25.85;;;;;;;;;;5289216;26;20079;-51
2024/04/08 00:26:03;;;;;;;35.10;27.87;;;;;;;;;;5316516;26;20079;-53
2024/04/08 00:28:29;;;;;;;33.05;27.83;;;;;;;;;;5310884;26;20240;-53
2024/04/08 00:31:03;;;;;;;46.35;30.92;;;;;;;;;;5310302;26;20012;-50
2024/04/08 00:33:30;;;;;;;36.40;24.67;;;;;;;;;;5310296;26;19997;-50
2024/04/08 00:35:56;;;;;;;33.97;25.77;;;;;;;;;;5308676;26;20034;-50
2024/04/08 00:38:23;;;;;;;44.73;25.40;;;;;;;;;;5310080;26;19998;-54
2024/04/08 00:40:49;;;;;;;33.27;25.53;;;;;;;;;;5311490;26;20025;-54
2024/04/08 00:43:15;;;;;;;35.23;27.07;;;;;;;;;;5313507;27;20466;-53
2024/04/08 00:45:42;;;;;;;36.05;25.55;;;;;;;;;;5313590;26;20228;-52
2024/04/08 00:48:11;;;;;;;34.38;27.77;;;;;;;;;;5311497;26;20067;-56
2024/04/08 00:50:38;;;;;;;33.40;25.10;;;;;;;;;;5313142;26;20075;-51
2024/04/08 00:53:04;;;;;;;26.00;19.15;;;;;;;;;;5313402;26;19998;-51
2024/04/08 00:55:32;;;;;;;21.37;19.13;;;;;;;;;;5313407;26;20394;-50
2024/04/08 00:57:59;;;;;;;31.65;22.77;;;;;;;;;;5311735;27;20284;-52
2024/04/08 01:00:25;;;;;;;28.17;21.13;;;;;;;;;;5313064;26;20008;-50
2024/04/08 01:02:57;;;;;;;28.53;20.60;;;;;;;;;;5346861;26;20012;-53
2024/04/08 01:05:24;;;;;;;29.75;21.80;;;;;;;;;;5346084;26;20275;-51
2024/04/08 01:07:51;;;;;;;27.77;23.00;;;;;;;;;;5347468;26;20033;-51
2024/04/08 01:10:18;;;;;;;26.95;23.15;;;;;;;;;;5343263;26;20008;-50
2024/04/08 01:12:44;;;;;;;30.02;23.77;;;;;;;;;;5347241;26;20461;-53
2024/04/08 01:15:10;;;;;;;31.90;24.47;;;;;;;;;;5334264;26;20005;-50
2024/04/08 01:17:36;;;;;;;40.87;24.43;;;;;;;;;;5313038;26;20272;-50
2024/04/08 01:20:03;;;;;;;35.17;26.00;;;;;;;;;;5317068;26;20284;-50
2024/04/08 01:22:31;;;;;;;35.25;25.92;;;;;;;;;;5315756;26;20076;-52
2024/04/08 01:25:04;;;;;;;32.65;25.90;;;;;;;;;;5341790;26;20002;-55
2024/04/08 01:27:31;;;;;;;29.38;23.20;;;;;;;;;;5278721;27;20014;-53
2024/04/08 01:29:57;;;;;;;29.67;24.17;;;;;;;;;;5305311;26;20018;-51
2024/04/08 01:32:23;;;;;;;28.03;22.47;;;;;;;;;;5340372;26;20020;-55
2024/04/08 01:34:49;;;;;;;31.20;22.90;;;;;;;;;;5341209;26;20346;-52
2024/04/08 01:37:15;;;;;;;32.07;23.93;;;;;;;;;;5312639;26;20458;-53
2024/04/08 01:39:42;;;;;;;29.87;26.67;;;;;;;;;;5310836;26;20401;-50
2024/04/08 01:42:08;;;;;;;35.83;27.37;;;;;;;;;;5312781;26;20001;-55
2024/04/08 01:44:34;;;;;;;33.23;28.07;;;;;;;;;;5312804;26;20346;-56
2024/04/08 01:47:00;;;;;;;29.30;25.13;;;;;;;;;;5317307;26;20494;-52
2024/04/08 01:49:27;;;;;;;30.43;24.70;;;;;;;;;;5347305;26;20011;-50
2024/04/08 01:51:54;;;;;;;34.85;25.38;;;;;;;;;;5345941;26;20369;-51
2024/04/08 01:54:21;;;;;;;28.48;25.40;;;;;;;;;;5347280;26;20012;-50
2024/04/08 01:56:47;;;;;;;32.50;27.63;;;;;;;;;;5345546;26;20011;-50
2024/04/08 01:59:13;;;;;;;37.75;30.33;;;;;;;;;;5345045;26;20025;-52
2024/04/08 02:01:40;;;;;;;40.47;31.67;;;;;;;;;;5345066;26;19997;-50
2024/04/08 02:04:06;;;;;;;44.05;31.58;;;;;;;;;;5346995;26;20008;-51
2024/04/08 02:06:32;;;;;;;37.83;29.20;;;;;;;;;;5346772;26;20011;-56
2024/04/08 02:08:58;;;;;;;41.07;28.50;;;;;;;;;;5345267;26;20016;-52
2024/04/08 02:11:25;;;;;;;34.23;27.37;;;;;;;;;;5346794;26;20210;-53
2024/04/08 02:13:51;;;;;;;37.08;25.08;;;;;;;;;;5346499;26;20232;-55
2024/04/08 02:16:17;;;;;;;29.30;24.37;;;;;;;;;;5345316;26;20001;-51
2024/04/08 02:18:43;;;;;;;33.23;24.10;;;;;;;;;;5346612;26;20005;-53
2024/04/08 02:21:12;;;;;;;35.67;25.52;;;;;;;;;;5346267;26;20165;-54
2024/04/08 02:23:39;;;;;;;28.10;23.30;;;;;;;;;;5338618;26;20497;-55
2024/04/08 02:26:05;;;;;;;31.43;25.73;;;;;;;;;;5312271;26;20006;-56
2024/04/08 02:28:31;;;;;;;37.53;26.05;;;;;;;;;;5310615;27;20232;-54
2024/04/08 02:31:04;;;;;;;28.27;25.02;;;;;;;;;;5325365;26;20001;-55
2024/04/08 02:33:30;;;;;;;31.55;23.75;;;;;;;;;;5321777;26;20013;-52
2024/04/08 02:36:03;;;;;;;35.20;26.48;;;;;;;;;;5323280;26;20013;-53
2024/04/08 02:38:30;;;;;;;31.15;24.88;;;;;;;;;;5331293;26;20078;-53
2024/04/08 02:40:56;;;;;;;30.50;25.00;;;;;;;;;;5310495;26;20034;-51
2024/04/08 02:43:26;;;;;;;28.35;25.35;;;;;;;;;;5321965;26;20012;-54
2024/04/08 02:45:52;;;;;;;32.17;25.95;;;;;;;;;;5345823;26;20001;-53
2024/04/08 02:48:23;;;;;;;30.38;25.55;;;;;;;;;;5346299;26;20024;-53
2024/04/08 02:50:51;;;;;;;33.25;25.75;;;;;;;;;;5346180;26;20012;-54
2024/04/08 02:53:17;;;;;;;32.78;24.70;;;;;;;;;;5343339;26;20341;-53
2024/04/08 02:55:44;;;;;;;36.40;25.05;;;;;;;;;;5332950;26;20002;-54
2024/04/08 02:58:10;;;;;;;34.63;24.40;;;;;;;;;;5335445;26;20008;-52
2024/04/08 03:00:38;;;;;;;29.80;25.93;;;;;;;;;;5312785;26;20079;-53
2024/04/08 03:03:04;;;;;;;29.02;25.92;;;;;;;;;;5320760;26;20001;-51
2024/04/08 03:05:30;;;;;;;33.20;24.70;;;;;;;;;;5340212;26;20008;-53
2024/04/08 03:07:56;;;;;;;33.60;24.63;;;;;;;;;;5346174;26;20345;-50
2024/04/08 03:10:23;;;;;;;24.50;20.97;;;;;;;;;;5345601;26;19997;-51
2024/04/08 03:12:49;;;;;;;28.50;23.77;;;;;;;;;;5341428;26;20279;-50
2024/04/08 03:15:16;;;;;;;34.00;25.30;;;;;;;;;;5330454;26;20462;-50
2024/04/08 03:17:42;;;;;;;30.17;25.20;;;;;;;;;;5311622;26;20355;-53
2024/04/08 03:20:08;;;;;;;34.90;24.97;;;;;;;;;;5332935;26;20009;-52
2024/04/08 03:22:34;;;;;;;34.67;25.43;;;;;;;;;;5345526;26;20357;-53
2024/04/08 03:25:00;;;;;;;34.47;25.17;;;;;;;;;;5338861;26;20280;-54
2024/04/08 03:27:27;;;;;;;33.38;25.35;;;;;;;;;;5309495;27;20067;-51
2024/04/08 03:29:53;;;;;;;32.40;25.63;;;;;;;;;;5340827;26;20140;-52
2024/04/08 03:32:19;;;;;;;30.80;25.03;;;;;;;;;;5340347;26;20015;-53
2024/04/08 03:34:45;;;;;;;34.77;26.73;;;;;;;;;;5316462;26;20032;-53
2024/04/08 03:37:11;;;;;;;37.10;26.50;;;;;;;;;;5345181;26;20020;-52
2024/04/08 03:39:38;;;;;;;37.00;28.33;;;;;;;;;;5328504;26;20005;-54
2024/04/08 03:42:04;;;;;;;30.30;27.13;;;;;;;;;;5311203;26;20087;-54
2024/04/08 03:44:30;;;;;;;35.03;27.23;;;;;;;;;;5334504;26;20406;-53
2024/04/08 03:46:56;;;;;;;32.08;25.60;;;;;;;;;;5320777;26;20016;-52
2024/04/08 03:49:23;;;;;;;28.80;24.03;;;;;;;;;;5339879;26;20060;-56
2024/04/08 03:51:49;;;;;;;31.83;25.03;;;;;;;;;;5345001;26;20358;-55
2024/04/08 03:54:17;;;;;;;30.98;25.08;;;;;;;;;;5344554;26;20467;-51
2024/04/08 03:56:43;;;;;;;36.28;27.77;;;;;;;;;;5326071;26;20614;-47
2024/04/08 03:59:09;;;;;;;37.27;28.73;;;;;;;;;;5311807;26;20476;-50
2024/04/08 04:01:36;;;;;;;38.47;30.27;;;;;;;;;;5342886;26;20012;-51
2024/04/08 04:04:02;;;;;;;37.83;28.03;;;;;;;;;;5345399;26;19997;-51
2024/04/08 04:06:28;;;;;;;43.03;28.05;;;;;;;;;;5344430;26;20005;-52
2024/04/08 04:08:55;;;;;;;33.47;28.17;;;;;;;;;;5341565;26;20005;-55
2024/04/08 04:11:21;;;;;;;32.33;26.33;;;;;;;;;;5341226;26;20001;-55
2024/04/08 04:13:48;;;;;;;36.10;26.33;;;;;;;;;;5341388;26;20096;-54
2024/04/08 04:16:14;;;;;;;26.75;22.48;;;;;;;;;;5340104;26;20517;-53
2024/04/08 04:18:40;;;;;;;31.83;23.52;;;;;;;;;;5342718;26;20013;-52
2024/04/08 04:21:07;;;;;;;25.80;23.00;;;;;;;;;;5342771;26;19997;-55
2024/04/08 04:23:33;;;;;;;27.08;23.35;;;;;;;;;;5344656;26;20454;-56
2024/04/08 04:25:59;;;;;;;21.77;19.48;;;;;;;;;;5343448;26;20000;-55
2024/04/08 04:28:26;;;;;;;23.52;21.00;;;;;;;;;;5344986;26;20012;-56
2024/04/08 04:31:01;;;;;;;24.77;21.57;;;;;;;;;;5344835;26;20477;-53
2024/04/08 04:33:27;;;;;;;25.00;19.50;;;;;;;;;;5405320;21;20080;-52
2024/04/08 04:35:53;;;;;;;24.48;20.80;;;;;;;;;;5413178;26;19994;-49
2024/04/08 04:38:20;;;;;;;22.60;20.27;;;;;;;;;;5413652;26;20003;-49
2024/04/08 04:40:46;;;;;;;21.23;18.70;;;;;;;;;;5414563;26;19995;-49
2024/04/08 04:43:12;;;;;;;22.27;17.17;;;;;;;;;;5414943;26;20581;-49
2024/04/08 04:45:38;;;;;;;21.52;19.33;;;;;;;;;;5415147;26;20353;-49
2024/04/08 04:48:05;;;;;;;27.93;23.07;;;;;;;;;;5415455;26;20003;-50
2024/04/08 04:50:32;;;;;;;33.42;24.42;;;;;;;;;;5412733;26;20065;-49
2024/04/08 04:52:58;;;;;;;23.92;19.90;;;;;;;;;;5413115;26;20076;-49
2024/04/08 04:55:25;;;;;;;23.60;21.00;;;;;;;;;;5413113;26;20001;-51
2024/04/08 04:57:51;;;;;;;24.43;19.60;;;;;;;;;;5413131;26;19995;-49
2024/04/08 05:00:17;;;;;;;25.27;20.60;;;;;;;;;;5414608;26;20000;-48
2024/04/08 05:02:43;;;;;;;26.47;23.47;;;;;;;;;;5412933;26;20002;-49
2024/04/08 05:05:09;;;;;;;23.80;21.30;;;;;;;;;;5412780;26;20006;-49
2024/04/08 05:07:36;;;;;;;28.27;20.80;;;;;;;;;;5414771;26;19998;-51
2024/04/08 05:10:02;;;;;;;32.77;22.67;;;;;;;;;;5414437;26;19999;-49
2024/04/08 05:12:28;;;;;;;22.97;19.80;;;;;;;;;;5414483;26;20272;-49
2024/04/08 05:14:54;;;;;;;22.00;19.63;;;;;;;;;;5414797;26;20529;-51
2024/04/08 05:17:21;;;;;;;25.33;22.20;;;;;;;;;;5414325;26;20064;-51
2024/04/08 05:19:47;;;;;;;32.25;25.13;;;;;;;;;;5412093;26;20002;-48
2024/04/08 05:22:17;;;;;;;35.67;26.90;;;;;;;;;;5414169;26;20002;-49
2024/04/08 05:24:46;;;;;;;44.17;33.22;;;;;;;;;;5414418;26;20002;-50
2024/04/08 05:27:12;;;;;;;45.92;31.85;;;;;;;;;;5413444;26;20006;-49
2024/04/08 05:29:38;;;;;;;40.00;30.90;;;;;;;;;;5417784;26;20459;-49
2024/04/08 05:32:05;;;;;;;37.72;28.25;;;;;;;;;;5417896;26;20000;-49
2024/04/08 05:34:31;;;;;;;47.43;34.53;;;;;;;;;;5417745;26;20328;-49
2024/04/08 05:36:57;;;;;;;40.65;31.27;;;;;;;;;;5415983;26;19992;-49
2024/04/08 05:39:23;;;;;;;56.03;35.63;;;;;;;;;;5417927;26;19992;-49
2024/04/08 05:41:49;;;;;;;48.60;33.45;;;;;;;;;;5417571;26;20459;-50
2024/04/08 05:44:15;;;;;;;45.75;35.42;;;;;;;;;;5417485;26;20369;-50
2024/04/08 05:46:42;;;;;;;52.30;37.17;;;;;;;;;;5417818;26;19996;-49
2024/04/08 05:49:09;;;;;;;48.45;32.28;;;;;;;;;;5417540;26;19991;-49
2024/04/08 05:51:35;;;;;;;31.77;26.30;;;;;;;;;;5417794;26;19992;-49
2024/04/08 05:54:01;;;;;;;32.33;24.77;;;;;;;;;;5418085;26;19995;-50
2024/04/08 05:56:28;;;;;;;31.37;24.07;;;;;;;;;;5417800;26;20003;-49
2024/04/08 05:58:54;;;;;;;29.55;26.25;;;;;;;;;;5415747;26;20343;-50
2024/04/08 06:01:20;;;;;;;32.80;25.77;;;;;;;;;;5415369;26;20036;-50
2024/04/08 06:03:46;;;;;;;35.30;27.00;;;;;;;;;;5417513;26;20461;-51
2024/04/08 06:06:22;;;;;;;34.13;29.23;;;;;;;;;;5417726;26;20007;-52
2024/04/08 06:08:54;;;;;;;56.28;33.38;;;;;;;;;;5415969;26;19995;-51
2024/04/08 06:11:20;;;;;;;43.75;32.10;;;;;;;;;;5417068;26;20007;-52
2024/04/08 06:13:46;;;;;;;47.70;33.03;;;;;;;;;;5417450;26;20011;-49
2024/04/08 06:16:12;;;;;;;46.95;32.80;;;;;;;;;;5417429;26;20007;-49
2024/04/08 06:18:38;;;;;;;50.85;34.40;;;;;;;;;;5417136;26;19995;-50
2024/04/08 06:21:05;;;;;;;54.00;39.60;;;;;;;;;;5417030;26;20489;-52
2024/04/08 06:23:31;;;;;;;53.97;37.47;;;;;;;;;;5417423;26;20386;-50
2024/04/08 06:26:00;;;;;;;41.80;35.60;;;;;;;;;;5417209;26;20008;-50
2024/04/08 06:28:27;;;;;;;41.00;32.10;;;;;;;;;;5417186;26;20383;-52
2024/04/08 06:30:53;;;;;;;38.83;33.27;;;;;;;;;;5416982;26;19992;-51
2024/04/08 06:33:19;;;;;;;56.13;38.80;;;;;;;;;;5417030;26;19995;-49
2024/04/08 06:35:46;;;;;;;49.97;36.67;;;;;;;;;;5415451;26;19992;-49
2024/04/08 06:38:13;;;;;;;41.95;33.05;;;;;;;;;;5416791;26;20007;-49
2024/04/08 06:40:42;;;;;;;50.72;38.97;;;;;;;;;;5416402;26;20346;-49
2024/04/08 06:43:09;;;;;;;42.97;34.72;;;;;;;;;;5416752;26;19996;-49
2024/04/08 06:45:35;;;;;;;46.85;35.90;;;;;;;;;;5416857;26;19999;-49
2024/04/08 06:48:02;;;;;;;57.17;38.90;;;;;;;;;;5416966;26;20003;-49
2024/04/08 06:50:28;;;;;;;51.47;41.10;;;;;;;;;;5414742;26;20007;-49
2024/04/08 06:52:54;;;;;;;124.18;45.42;;;;;;;;;;5416453;26;20072;-50
2024/04/08 06:55:20;;;;;;;66.03;41.93;;;;;;;;;;5416849;26;20003;-50
2024/04/08 06:57:47;;;;;;;58.65;41.80;;;;;;;;;;5416862;26;20002;-49
2024/04/08 07:00:13;;;;;;;51.78;41.40;;;;;;;;;;5416036;26;20032;-50
2024/04/08 07:02:40;;;;;;;55.92;42.47;;;;;;;;;;5416846;26;20004;-49
2024/04/08 07:05:07;;;;;;;58.75;43.97;;;;;;;;;;5416420;26;20383;-50
2024/04/08 07:07:33;;;;;;;57.30;44.47;;;;;;;;;;5415123;26;20027;-50
2024/04/08 07:09:59;;;;;;;58.50;44.75;;;;;;;;;;5415915;26;19999;-49
2024/04/08 07:12:26;;;;;;;62.63;47.80;;;;;;;;;;5416043;26;20006;-50
2024/04/08 07:14:55;;;;;;;57.07;44.47;;;;;;;;;;5414847;26;19992;-52
2024/04/08 07:17:21;;;;;;;53.95;43.08;;;;;;;;;;5414919;26;20007;-51
2024/04/08 07:19:48;;;;;;;51.47;45.33;;;;;;;;;;5415910;26;20010;-52
2024/04/08 07:22:14;;;;;;;54.38;44.10;;;;;;;;;;5416187;26;20125;-51
2024/04/08 07:24:41;;;;;;;52.67;41.97;;;;;;;;;;5416332;26;20007;-52
2024/04/08 07:27:08;;;;;;;49.15;40.40;;;;;;;;;;5416081;26;20354;-48
2024/04/08 07:29:34;;;;;;;49.90;41.80;;;;;;;;;;5415968;26;19995;-49
2024/04/08 07:32:00;;;;;;;48.60;38.20;;;;;;;;;;5416052;26;20079;-51
2024/04/08 07:34:27;;;;;;;53.13;39.83;;;;;;;;;;5415860;26;20007;-48
2024/04/08 07:36:53;;;;;;;48.50;38.83;;;;;;;;;;5416519;26;20010;-48
2024/04/08 07:39:19;;;;;;;47.80;36.95;;;;;;;;;;5415956;26;20777;-49
2024/04/08 07:41:46;;;;;;;45.57;36.73;;;;;;;;;;5415640;26;20000;-48
2024/04/08 07:44:12;;;;;;;41.43;35.97;;;;;;;;;;5416136;26;20464;-49
2024/04/08 07:46:38;;;;;;;45.87;39.27;;;;;;;;;;5415965;26;20470;-48
2024/04/08 07:49:04;;;;;;;45.67;37.70;;;;;;;;;;5415938;26;20007;-48
2024/04/08 07:51:31;;;;;;;50.23;36.53;;;;;;;;;;5413401;26;20043;-49
2024/04/08 07:53:57;;;;;;;45.97;35.67;;;;;;;;;;5416075;26;20003;-50
2024/04/08 07:56:23;;;;;;;44.83;36.77;;;;;;;;;;5416155;26;19991;-48
2024/04/08 07:58:51;;;;;;;45.30;38.43;;;;;;;;;;5416078;26;20003;-49
2024/04/08 08:01:17;;;;;;;47.80;36.35;;;;;;;;;;5413660;26;20269;-49
2024/04/08 08:03:43;;;;;;;44.83;34.47;;;;;;;;;;5415790;26;19995;-49
2024/04/08 08:06:10;;;;;;;39.95;35.08;;;;;;;;;;5415887;26;20269;-49
2024/04/08 08:08:36;;;;;;;43.63;35.23;;;;;;;;;;5384338;26;20031;-49
2024/04/08 08:11:03;;;;;;;44.80;35.60;;;;;;;;;;5415262;26;19995;-49
2024/04/08 08:13:30;;;;;;;46.03;32.13;;;;;;;;;;5413535;26;20269;-48
2024/04/08 08:15:56;;;;;;;;;;;;;;;;;;5384687;26;20134;-48
2024/04/08 08:18:23;;;;;;;35.03;28.73;;;;;;;;;;5415313;26;19925;-49
2024/04/08 08:20:49;;;;;;;46.88;29.58;;;;;;;;;;5415248;26;20470;-49
2024/04/08 08:23:15;;;;;;;40.83;27.77;;;;;;;;;;5413681;26;20000;-49
2024/04/08 08:25:41;;;;;;;31.60;25.47;;;;;;;;;;5415617;26;19995;-50
2024/04/08 08:28:07;;;;;;;34.73;27.97;;;;;;;;;;5415472;26;19995;-48
2024/04/08 08:30:37;;;;;;;34.73;28.83;;;;;;;;;;5415113;26;20114;-49
2024/04/08 08:33:03;;;;;;;38.30;29.77;;;;;;;;;;5415197;26;20568;-49
2024/04/08 08:35:33;;;;;;;31.08;26.00;;;;;;;;;;5413310;26;20413;-48
2024/04/08 08:37:59;;;;;;;35.30;27.48;;;;;;;;;;5414971;26;19995;-48
2024/04/08 08:40:26;;;;;;;33.72;27.10;;;;;;;;;;5414623;26;19995;-49
2024/04/08 08:42:56;;;;;;;33.70;26.42;;;;;;;;;;5414751;26;19992;-49
2024/04/08 08:45:22;;;;;;;39.05;25.23;;;;;;;;;;5415074;26;20037;-49
2024/04/08 08:47:49;;;;;;;33.15;26.15;;;;;;;;;;5415095;26;20032;-49
2024/04/08 08:50:15;;;;;;;28.60;22.10;;;;;;;;;;5383491;26;20496;-49
2024/04/08 08:52:41;;;;;;;35.00;25.50;;;;;;;;;;5416450;26;20036;-49
2024/04/08 08:55:09;;;;;;;32.72;24.02;;;;;;;;;;5413554;26;20064;-49
2024/04/08 08:57:35;;;;;;;29.77;24.23;;;;;;;;;;5414702;26;19992;-49
2024/04/08 09:00:05;;;;;;;33.13;25.70;;;;;;;;;;5414128;26;20375;-49
2024/04/08 09:02:31;;;;;;;32.00;24.10;;;;;;;;;;5415854;26;20077;-49
2024/04/08 09:04:57;;;;;;;31.25;24.52;;;;;;;;;;5416689;26;20006;-49
2024/04/08 09:07:24;;;;;;;28.77;23.03;;;;;;;;;;5418076;26;20023;-49
2024/04/08 09:09:54;;;;;;;30.20;22.87;;;;;;;;;;5417964;26;20007;-49
2024/04/08 09:12:21;;;;;;;27.35;22.38;;;;;;;;;;5418228;26;20221;-48
2024/04/08 09:14:51;;;;;;;27.00;22.95;;;;;;;;;;5418068;26;20006;-49
2024/04/08 09:17:18;;;;;;;25.75;20.95;;;;;;;;;;5418173;26;20072;-49
2024/04/08 09:19:44;;;;;;;28.20;20.98;;;;;;;;;;5418159;26;19992;-49
2024/04/08 09:22:11;;;;;;;26.80;21.02;;;;;;;;;;5418030;26;20502;-49
2024/04/08 09:24:37;;;;;;;27.20;21.35;;;;;;;;;;5418326;26;20006;-49
2024/04/08 09:27:03;;;;;;;28.37;22.07;;;;;;;;;;5416006;26;19992;-49
2024/04/08 09:29:29;;;;;;;28.25;21.95;;;;;;;;;;5418130;26;20233;-49
2024/04/08 09:31:58;;;;;;;30.50;20.97;;;;;;;;;;5415703;26;20380;-49
2024/04/08 09:34:24;;;;;;;26.13;20.92;;;;;;;;;;5416092;26;20221;-49
2024/04/08 09:36:52;;;;;;;27.88;21.63;;;;;;;;;;5417695;26;19995;-49
2024/04/08 09:39:19;;;;;;;27.40;21.50;;;;;;;;;;5417868;26;20006;-49
2024/04/08 09:41:46;;;;;;;30.13;20.95;;;;;;;;;;5417638;26;19996;-49
2024/04/08 09:44:17;;;;;;;28.25;22.13;;;;;;;;;;5417810;26;20000;-49
2024/04/08 09:46:44;;;;;;;28.85;20.65;;;;;;;;;;5416090;26;19991;-49
2024/04/08 09:49:11;;;;;;;27.38;21.33;;;;;;;;;;5417846;26;19995;-49
2024/04/08 09:51:41;;;;;;;31.73;21.80;;;;;;;;;;5415177;26;19995;-49
2024/04/08 09:54:08;;;;;;;37.22;21.23;;;;;;;;;;5417578;26;20003;-49
2024/04/08 09:56:36;;;;;;;31.65;21.00;;;;;;;;;;5417772;26;19995;-49
2024/04/08 09:59:08;;;;;;;28.50;19.35;;;;;;;;;;5417502;26;19992;-49
2024/04/08 10:01:38;;;;;;;25.27;20.48;;;;;;;;;;5417485;26;19992;-49
2024/04/08 10:04:10;;;;;;;27.33;21.17;;;;;;;;;;5417642;26;20409;-49
2024/04/08 10:06:36;;;;;;;26.35;19.30;;;;;;;;;;5417510;26;19992;-49
2024/04/08 10:09:03;;;;;;;32.50;18.38;;;;;;;;;;5415875;26;20004;-49
2024/04/08 10:11:29;;;;;;;27.55;21.15;;;;;;;;;;5415118;26;19999;-49
2024/04/08 10:13:55;;;;;;;25.88;19.35;;;;;;;;;;5416415;26;20053;-49
2024/04/08 10:16:21;;;;;;;24.75;19.92;;;;;;;;;;5417147;26;20004;-49
2024/04/08 10:18:48;;;;;;;26.15;18.05;;;;;;;;;;5443238;26;19999;-49
2024/04/08 10:21:15;;;;;;;26.25;19.42;;;;;;;;;;5429318;26;20014;-49
2024/04/08 10:23:42;;;;;;;29.50;19.25;;;;;;;;;;5422321;26;19999;-49
2024/04/08 10:26:15;;;;;;;22.92;17.98;;;;;;;;;;5416162;26;20027;-49
2024/04/08 10:28:45;;;;;;;24.98;18.65;;;;;;;;;;5414189;26;19996;-50
2024/04/08 10:31:13;;;;;;;26.67;18.48;;;;;;;;;;5416418;26;19999;-50
2024/04/08 10:33:40;;;;;;;24.40;17.73;;;;;;;;;;5411155;21;20016;-55
2024/04/08 10:36:06;;;;;;;22.42;16.55;;;;;;;;;;5346161;26;20005;-54
2024/04/08 10:38:32;;;;;;;20.83;17.30;;;;;;;;;;5302357;26;20001;-55
2024/04/08 10:41:06;;;;;;;28.80;19.02;;;;;;;;;;5374664;26;20518;-51
2024/04/08 10:43:35;;;;;;;22.48;16.05;;;;;;;;;;5336160;26;20011;-54
2024/04/08 10:46:17;;;;;;;17.73;15.10;;;;;;;;;;5349056;26;20530;-54
2024/04/08 10:48:44;;;;;;;20.77;15.60;;;;;;;;;;5345189;26;19997;-54
2024/04/08 10:51:14;;;;;;;19.02;16.70;;;;;;;;;;5360479;26;20497;-54
2024/04/08 10:53:40;;;;;;;19.92;13.77;;;;;;;;;;5354830;26;20086;-54
2024/04/08 10:56:08;;;;;;;22.55;17.90;;;;;;;;;;5344714;26;20028;-54
2024/04/08 10:58:34;;;;;;;23.90;17.95;;;;;;;;;;5371510;26;20000;-50
2024/04/08 11:01:00;;;;;;;26.38;18.05;;;;;;;;;;5324075;26;20086;-49
2024/04/08 11:03:27;;;;;;;23.38;16.15;;;;;;;;;;5379403;26;20011;-53
2024/04/08 11:05:54;;;;;;;20.23;15.88;;;;;;;;;;5378060;26;20031;-53
2024/04/08 11:08:20;;;;;;;19.85;16.38;;;;;;;;;;5374493;26;20464;-51
2024/04/08 11:10:46;;;;;;;18.70;15.48;;;;;;;;;;5345406;26;20606;-54
2024/04/08 11:13:13;;;;;;;21.10;15.30;;;;;;;;;;5344065;26;20376;-55
2024/04/08 11:15:43;;;;;;;19.50;14.57;;;;;;;;;;5346889;26;20004;-52
2024/04/08 11:18:12;;;;;;;21.33;15.40;;;;;;;;;;5354883;26;20019;-50
2024/04/08 11:20:39;;;;;;;18.15;14.60;;;;;;;;;;5329574;26;20004;-53
2024/04/08 11:23:05;;;;;;;16.83;13.77;;;;;;;;;;5372033;26;20023;-50
2024/04/08 11:25:31;;;;;;;16.50;12.70;;;;;;;;;;5374331;26;20083;-50
2024/04/08 11:27:59;;;;;;;19.60;13.25;;;;;;;;;;5343121;26;20078;-50
2024/04/08 11:30:25;;;;;;;20.65;14.18;;;;;;;;;;5334339;26;20348;-56
2024/04/08 11:32:52;;;;;;;19.75;14.60;;;;;;;;;;5362714;26;20357;-55
2024/04/08 11:35:18;;;;;;;26.70;14.15;;;;;;;;;;5347882;26;20012;-51
2024/04/08 11:37:44;;;;;;;17.55;15.48;;;;;;;;;;5378545;26;20018;-55
2024/04/08 11:40:10;;;;;;;19.17;14.68;;;;;;;;;;5378025;26;20000;-53
2024/04/08 11:42:37;;;;;;;22.40;16.42;;;;;;;;;;5363494;26;20033;-54
2024/04/08 11:45:07;;;;;;;21.98;16.63;;;;;;;;;;5354401;26;20019;-55
2024/04/08 11:47:33;;;;;;;21.55;16.80;;;;;;;;;;5310570;26;20012;-55
2024/04/08 11:50:00;;;;;;;22.98;15.80;;;;;;;;;;5348953;26;20480;-51
2024/04/08 11:52:26;;;;;;;19.33;16.20;;;;;;;;;;5379162;26;20078;-54
2024/04/08 11:54:52;;;;;;;23.85;17.25;;;;;;;;;;5347242;26;20457;-52
2024/04/08 11:57:18;;;;;;;20.52;16.35;;;;;;;;;;5356592;26;20012;-54
2024/04/08 11:59:45;;;;;;;20.73;16.25;;;;;;;;;;5344433;26;19997;-56
2024/04/08 12:02:11;;;;;;;20.55;16.30;;;;;;;;;;5340036;26;20020;-56
2024/04/08 12:04:39;;;;;;;20.10;16.13;;;;;;;;;;5348786;26;20015;-57
2024/04/08 12:07:05;;;;;;;17.38;14.95;;;;;;;;;;5343888;26;20001;-49
2024/04/08 12:09:31;;;;;;;22.65;15.65;;;;;;;;;;5343385;26;20457;-56
2024/04/08 12:11:57;;;;;;;19.30;16.38;;;;;;;;;;5284252;26;20011;-58
2024/04/08 12:14:24;;;;;;;25.98;17.63;;;;;;;;;;5323297;26;20004;-55
2024/04/08 12:16:51;;;;;;;19.38;16.88;;;;;;;;;;5374751;26;20000;-56
2024/04/08 12:19:17;;;;;;;19.02;17.00;;;;;;;;;;5347534;26;19996;-51
2024/04/08 12:21:43;;;;;;;21.85;17.25;;;;;;;;;;5330369;26;20005;-53
2024/04/08 12:24:09;;;;;;;27.20;18.15;;;;;;;;;;5355899;26;20017;-53
2024/04/08 12:26:35;;;;;;;22.83;17.17;;;;;;;;;;5370988;26;20004;-55
2024/04/08 12:29:03;;;;;;;21.92;18.92;;;;;;;;;;5375633;26;20016;-55
2024/04/08 12:31:29;;;;;;;25.45;19.20;;;;;;;;;;5311177;26;20030;-50
2024/04/08 12:33:55;;;;;;;21.40;18.55;;;;;;;;;;5315102;26;20004;-53
2024/04/08 12:36:21;;;;;;;23.75;18.55;;;;;;;;;;5362607;26;20468;-50
2024/04/08 12:38:48;;;;;;;23.58;18.45;;;;;;;;;;5350393;26;20003;-50
2024/04/08 12:41:14;;;;;;;28.33;17.52;;;;;;;;;;5380134;26;20011;-56
2024/04/08 12:43:42;;;;;;;23.30;17.40;;;;;;;;;;5348994;26;20000;-54
2024/04/08 12:46:08;;;;;;;19.45;16.50;;;;;;;;;;5332654;26;20007;-51
2024/04/08 12:48:34;;;;;;;28.50;16.85;;;;;;;;;;5377735;26;19996;-54
2024/04/08 12:51:01;;;;;;;21.88;16.63;;;;;;;;;;5334121;26;19997;-50
2024/04/08 12:53:27;;;;;;;25.50;16.83;;;;;;;;;;5348743;26;20037;-55
2024/04/08 12:55:53;;;;;;;18.45;15.50;;;;;;;;;;5358687;26;20001;-52
2024/04/08 12:58:19;;;;;;;18.90;15.82;;;;;;;;;;5346027;26;20008;-51
2024/04/08 13:00:47;;;;;;;18.77;15.32;;;;;;;;;;5366990;26;20001;-50
2024/04/08 13:03:13;;;;;;;22.40;16.77;;;;;;;;;;5315494;26;20008;-54
2024/04/08 13:05:40;;;;;;;23.52;15.85;;;;;;;;;;5322235;26;20079;-53
2024/04/08 13:08:06;;;;;;;;;;;;;;;;;;5375852;26;20011;-55
2024/04/08 13:10:32;;;;;;;20.38;15.75;;;;;;;;;;5372852;26;19961;-55
2024/04/08 13:12:59;;;;;;;;;;;;;;;;;;5339166;26;19996;-50
2024/04/08 13:15:25;;;;;;;19.52;15.25;;;;;;;;;;5355854;26;19926;-57
2024/04/08 13:17:51;;;;;;;20.83;16.27;;;;;;;;;;5331888;26;20487;-56
2024/04/08 13:20:20;;;;;;;20.00;16.23;;;;;;;;;;5362322;26;19996;-54
2024/04/08 13:22:46;;;;;;;18.20;14.93;;;;;;;;;;5365722;26;20019;-54
2024/04/08 13:25:13;;;;;;;19.67;16.98;;;;;;;;;;5368746;26;20146;-55
2024/04/08 13:27:39;;;;;;;;;;;;;;;;;;5338568;26;20032;-55
2024/04/08 13:30:06;;;;;;;18.15;14.75;;;;;;;;;;5337561;26;19932;-53
2024/04/08 13:32:32;;;;;;;19.65;14.38;;;;;;;;;;5357705;26;20016;-56
2024/04/08 13:34:58;;;;;;;23.13;14.27;;;;;;;;;;5288549;26;20449;-55
2024/04/08 13:37:24;;;;;;;21.25;14.95;;;;;;;;;;5348193;26;20011;-51
2024/04/08 13:39:52;;;;;;;18.02;13.60;;;;;;;;;;5316315;26;20070;-51
2024/04/08 13:42:19;;;;;;;22.38;14.68;;;;;;;;;;5316907;26;19993;-52
2024/04/08 13:44:46;;;;;;;17.10;15.32;;;;;;;;;;5316809;26;20371;-50
2024/04/08 13:47:13;;;;;;;23.40;15.73;;;;;;;;;;5316808;26;20017;-53
2024/04/08 13:49:39;;;;;;;19.73;15.10;;;;;;;;;;5346195;26;19993;-54
2024/04/08 13:52:09;;;;;;;18.27;16.38;;;;;;;;;;5347302;26;20511;-52
2024/04/08 13:54:35;;;;;;;16.48;13.50;;;;;;;;;;5344620;26;20008;-51
2024/04/08 13:57:02;;;;;;;21.13;14.23;;;;;;;;;;5321368;26;19997;-58
2024/04/08 13:59:28;;;;;;;16.60;14.77;;;;;;;;;;5326693;26;19996;-60
2024/04/08 14:01:54;;;;;;;;;;;;;;;;;;5360424;26;20069;-58
2024/04/08 14:04:21;;;;;;;18.27;13.65;;;;;;;;;;5368082;26;19933;-56
2024/04/08 14:06:47;;;;;;;17.42;13.60;;;;;;;;;;5337450;26;19996;-55
2024/04/08 14:09:14;;;;;;;16.80;13.60;;;;;;;;;;5335446;26;20340;-59
2024/04/08 14:11:40;;;;;;;;;;;;;;;;;;5355887;26;20458;-58
2024/04/08 14:14:06;;;;;;;14.80;12.57;;;;;;;;;;5346598;26;20256;-59
2024/04/08 14:16:32;;;;;;;;;;;;;;;;;;5359540;26;20000;-57